sensor_id;sensor_type;location;lat;lon;timestamp;P1;durP1;ratioP1;P2;durP2;ratioP2
42168;SDS011;27838;43.858;25.974;2023-12-20T00:00:24;22.38;;;13.32;;
42168;SDS011;27838;43.858;25.974;2023-12-20T00:02:51;25.45;;;14.25;;
42168;SDS011;27838;43.858;25.974;2023-12-20T00:05:18;25.85;;;14.00;;
42168;SDS011;27838;43.858;25.974;2023-12-20T00:07:44;30.65;;;12.65;;
42168;SDS011;27838;43.858;25.974;2023-12-20T00:10:11;25.42;;;13.18;;
42168;SDS011;27838;43.858;25.974;2023-12-20T00:12:38;23.15;;;12.98;;
42168;SDS011;27838;43.858;25.974;2023-12-20T00:15:04;19.95;;;12.05;;
42168;SDS011;27838;43.858;25.974;2023-12-20T00:17:31;29.17;;;13.45;;
42168;SDS011;27838;43.858;25.974;2023-12-20T00:19:58;23.58;;;12.98;;
42168;SDS011;27838;43.858;25.974;2023-12-20T00:22:24;19.92;;;11.65;;
42168;SDS011;27838;43.858;25.974;2023-12-20T00:24:51;24.10;;;11.50;;
42168;SDS011;27838;43.858;25.974;2023-12-20T00:27:17;21.65;;;12.82;;
42168;SDS011;27838;43.858;25.974;2023-12-20T00:29:44;21.02;;;12.13;;
42168;SDS011;27838;43.858;25.974;2023-12-20T00:32:14;21.13;;;12.27;;
42168;SDS011;27838;43.858;25.974;2023-12-20T00:34:41;21.55;;;12.82;;
42168;SDS011;27838;43.858;25.974;2023-12-20T00:37:07;21.10;;;11.98;;
42168;SDS011;27838;43.858;25.974;2023-12-20T00:39:34;27.25;;;15.45;;
42168;SDS011;27838;43.858;25.974;2023-12-20T00:42:00;32.22;;;17.77;;
42168;SDS011;27838;43.858;25.974;2023-12-20T00:44:27;30.00;;;18.08;;
42168;SDS011;27838;43.858;25.974;2023-12-20T00:46:53;32.10;;;17.02;;
42168;SDS011;27838;43.858;25.974;2023-12-20T00:49:20;30.58;;;13.95;;
42168;SDS011;27838;43.858;25.974;2023-12-20T00:51:47;28.05;;;13.93;;
42168;SDS011;27838;43.858;25.974;2023-12-20T00:54:15;20.83;;;12.63;;
42168;SDS011;27838;43.858;25.974;2023-12-20T00:56:42;24.02;;;13.52;;
42168;SDS011;27838;43.858;25.974;2023-12-20T00:59:08;29.25;;;13.90;;
42168;SDS011;27838;43.858;25.974;2023-12-20T01:01:35;24.98;;;13.77;;
42168;SDS011;27838;43.858;25.974;2023-12-20T01:04:02;20.50;;;13.05;;
42168;SDS011;27838;43.858;25.974;2023-12-20T01:06:29;27.75;;;13.32;;
42168;SDS011;27838;43.858;25.974;2023-12-20T01:08:56;25.98;;;13.82;;
42168;SDS011;27838;43.858;25.974;2023-12-20T01:11:22;23.63;;;13.15;;
42168;SDS011;27838;43.858;25.974;2023-12-20T01:13:49;21.05;;;12.10;;
42168;SDS011;27838;43.858;25.974;2023-12-20T01:16:15;21.15;;;12.60;;
42168;SDS011;27838;43.858;25.974;2023-12-20T01:18:42;19.85;;;12.48;;
42168;SDS011;27838;43.858;25.974;2023-12-20T01:21:08;26.25;;;13.43;;
42168;SDS011;27838;43.858;25.974;2023-12-20T01:23:35;25.25;;;12.43;;
42168;SDS011;27838;43.858;25.974;2023-12-20T01:26:01;23.75;;;12.50;;
42168;SDS011;27838;43.858;25.974;2023-12-20T01:28:29;22.15;;;12.50;;
42168;SDS011;27838;43.858;25.974;2023-12-20T01:30:56;27.13;;;12.13;;
42168;SDS011;27838;43.858;25.974;2023-12-20T01:33:23;21.50;;;12.23;;
42168;SDS011;27838;43.858;25.974;2023-12-20T01:35:50;17.65;;;11.73;;
42168;SDS011;27838;43.858;25.974;2023-12-20T01:38:16;28.90;;;12.73;;
42168;SDS011;27838;43.858;25.974;2023-12-20T01:40:45;23.48;;;12.20;;
42168;SDS011;27838;43.858;25.974;2023-12-20T01:43:11;22.05;;;12.00;;
42168;SDS011;27838;43.858;25.974;2023-12-20T01:45:39;24.52;;;12.68;;
42168;SDS011;27838;43.858;25.974;2023-12-20T01:48:06;23.65;;;11.82;;
42168;SDS011;27838;43.858;25.974;2023-12-20T01:50:35;22.73;;;11.80;;
42168;SDS011;27838;43.858;25.974;2023-12-20T01:53:03;30.90;;;13.43;;
42168;SDS011;27838;43.858;25.974;2023-12-20T01:55:31;24.02;;;11.75;;
42168;SDS011;27838;43.858;25.974;2023-12-20T01:58:00;20.98;;;11.82;;
42168;SDS011;27838;43.858;25.974;2023-12-20T02:00:27;18.48;;;11.35;;
42168;SDS011;27838;43.858;25.974;2023-12-20T02:02:55;24.15;;;12.80;;
42168;SDS011;27838;43.858;25.974;2023-12-20T02:05:22;21.42;;;11.93;;
42168;SDS011;27838;43.858;25.974;2023-12-20T02:07:47;21.13;;;11.65;;
42168;SDS011;27838;43.858;25.974;2023-12-20T02:10:14;22.20;;;12.13;;
42168;SDS011;27838;43.858;25.974;2023-12-20T02:12:42;26.83;;;13.05;;
42168;SDS011;27838;43.858;25.974;2023-12-20T02:15:08;23.63;;;12.27;;
42168;SDS011;27838;43.858;25.974;2023-12-20T02:17:35;25.33;;;12.57;;
42168;SDS011;27838;43.858;25.974;2023-12-20T02:20:02;31.77;;;16.00;;
42168;SDS011;27838;43.858;25.974;2023-12-20T02:22:30;30.20;;;16.40;;
42168;SDS011;27838;43.858;25.974;2023-12-20T02:24:57;29.23;;;14.95;;
42168;SDS011;27838;43.858;25.974;2023-12-20T02:27:24;33.67;;;15.35;;
42168;SDS011;27838;43.858;25.974;2023-12-20T02:29:50;28.55;;;14.90;;
42168;SDS011;27838;43.858;25.974;2023-12-20T02:32:17;25.08;;;12.68;;
42168;SDS011;27838;43.858;25.974;2023-12-20T02:34:45;27.15;;;12.73;;
42168;SDS011;27838;43.858;25.974;2023-12-20T02:37:13;26.00;;;12.38;;
42168;SDS011;27838;43.858;25.974;2023-12-20T02:39:39;27.23;;;11.63;;
42168;SDS011;27838;43.858;25.974;2023-12-20T02:42:06;19.35;;;11.45;;
42168;SDS011;27838;43.858;25.974;2023-12-20T02:44:33;25.50;;;13.02;;
42168;SDS011;27838;43.858;25.974;2023-12-20T02:46:59;27.20;;;13.82;;
42168;SDS011;27838;43.858;25.974;2023-12-20T02:49:26;24.58;;;13.20;;
42168;SDS011;27838;43.858;25.974;2023-12-20T02:51:52;24.42;;;13.70;;
42168;SDS011;27838;43.858;25.974;2023-12-20T02:54:19;21.75;;;13.07;;
42168;SDS011;27838;43.858;25.974;2023-12-20T02:56:45;21.95;;;12.02;;
42168;SDS011;27838;43.858;25.974;2023-12-20T02:59:12;26.08;;;12.95;;
42168;SDS011;27838;43.858;25.974;2023-12-20T03:01:45;33.00;;;13.45;;
42168;SDS011;27838;43.858;25.974;2023-12-20T03:04:12;25.02;;;12.00;;
42168;SDS011;27838;43.858;25.974;2023-12-20T03:06:38;24.27;;;11.43;;
42168;SDS011;27838;43.858;25.974;2023-12-20T03:09:05;34.95;;;11.93;;
42168;SDS011;27838;43.858;25.974;2023-12-20T03:11:32;29.10;;;13.43;;
42168;SDS011;27838;43.858;25.974;2023-12-20T03:13:59;21.98;;;12.52;;
42168;SDS011;27838;43.858;25.974;2023-12-20T03:16:25;29.30;;;12.50;;
42168;SDS011;27838;43.858;25.974;2023-12-20T03:18:52;31.05;;;14.38;;
42168;SDS011;27838;43.858;25.974;2023-12-20T03:21:18;23.55;;;13.43;;
42168;SDS011;27838;43.858;25.974;2023-12-20T03:23:45;31.70;;;14.43;;
42168;SDS011;27838;43.858;25.974;2023-12-20T03:26:11;25.67;;;13.05;;
42168;SDS011;27838;43.858;25.974;2023-12-20T03:28:38;30.23;;;14.32;;
42168;SDS011;27838;43.858;25.974;2023-12-20T03:31:05;39.47;;;15.23;;
42168;SDS011;27838;43.858;25.974;2023-12-20T03:33:31;24.73;;;13.32;;
42168;SDS011;27838;43.858;25.974;2023-12-20T03:35:58;22.85;;;13.63;;
42168;SDS011;27838;43.858;25.974;2023-12-20T03:38:24;24.48;;;14.00;;
42168;SDS011;27838;43.858;25.974;2023-12-20T03:40:51;19.30;;;12.57;;
42168;SDS011;27838;43.858;25.974;2023-12-20T03:43:17;29.20;;;13.98;;
42168;SDS011;27838;43.858;25.974;2023-12-20T03:45:44;29.63;;;13.32;;
42168;SDS011;27838;43.858;25.974;2023-12-20T03:48:10;24.98;;;12.93;;
42168;SDS011;27838;43.858;25.974;2023-12-20T03:50:37;32.35;;;13.73;;
42168;SDS011;27838;43.858;25.974;2023-12-20T03:53:03;22.70;;;14.10;;
42168;SDS011;27838;43.858;25.974;2023-12-20T03:55:30;28.95;;;14.05;;
42168;SDS011;27838;43.858;25.974;2023-12-20T03:57:57;27.20;;;14.50;;
42168;SDS011;27838;43.858;25.974;2023-12-20T04:00:23;24.90;;;13.85;;
42168;SDS011;27838;43.858;25.974;2023-12-20T04:02:50;31.52;;;15.52;;
42168;SDS011;27838;43.858;25.974;2023-12-20T04:05:16;27.98;;;14.93;;
42168;SDS011;27838;43.858;25.974;2023-12-20T04:07:43;24.45;;;14.27;;
42168;SDS011;27838;43.858;25.974;2023-12-20T04:10:09;30.30;;;15.27;;
42168;SDS011;27838;43.858;25.974;2023-12-20T04:12:36;30.88;;;14.27;;
42168;SDS011;27838;43.858;25.974;2023-12-20T04:15:02;22.42;;;13.88;;
42168;SDS011;27838;43.858;25.974;2023-12-20T04:17:34;32.88;;;13.55;;
42168;SDS011;27838;43.858;25.974;2023-12-20T04:20:00;29.70;;;16.15;;
42168;SDS011;27838;43.858;25.974;2023-12-20T04:22:27;32.03;;;15.73;;
42168;SDS011;27838;43.858;25.974;2023-12-20T04:24:53;41.47;;;18.08;;
42168;SDS011;27838;43.858;25.974;2023-12-20T04:27:20;40.88;;;15.63;;
42168;SDS011;27838;43.858;25.974;2023-12-20T04:29:46;38.30;;;16.00;;
42168;SDS011;27838;43.858;25.974;2023-12-20T04:32:13;42.35;;;15.88;;
42168;SDS011;27838;43.858;25.974;2023-12-20T04:34:39;38.28;;;16.05;;
42168;SDS011;27838;43.858;25.974;2023-12-20T04:37:06;61.70;;;19.63;;
42168;SDS011;27838;43.858;25.974;2023-12-20T04:39:32;50.25;;;20.55;;
42168;SDS011;27838;43.858;25.974;2023-12-20T04:41:59;51.38;;;20.63;;
42168;SDS011;27838;43.858;25.974;2023-12-20T04:44:25;55.65;;;20.10;;
42168;SDS011;27838;43.858;25.974;2023-12-20T04:46:52;48.85;;;19.63;;
42168;SDS011;27838;43.858;25.974;2023-12-20T04:49:19;55.00;;;18.65;;
42168;SDS011;27838;43.858;25.974;2023-12-20T04:51:45;42.17;;;18.98;;
42168;SDS011;27838;43.858;25.974;2023-12-20T04:54:12;54.35;;;16.83;;
42168;SDS011;27838;43.858;25.974;2023-12-20T04:56:38;45.47;;;17.70;;
42168;SDS011;27838;43.858;25.974;2023-12-20T04:59:06;41.22;;;17.90;;
42168;SDS011;27838;43.858;25.974;2023-12-20T05:01:32;59.53;;;21.90;;
42168;SDS011;27838;43.858;25.974;2023-12-20T05:03:59;52.58;;;20.95;;
42168;SDS011;27838;43.858;25.974;2023-12-20T05:06:26;54.05;;;19.75;;
42168;SDS011;27838;43.858;25.974;2023-12-20T05:08:52;44.35;;;19.17;;
42168;SDS011;27838;43.858;25.974;2023-12-20T05:11:19;42.53;;;19.08;;
42168;SDS011;27838;43.858;25.974;2023-12-20T05:13:45;32.15;;;17.98;;
42168;SDS011;27838;43.858;25.974;2023-12-20T05:16:12;37.60;;;18.15;;
42168;SDS011;27838;43.858;25.974;2023-12-20T05:18:39;53.15;;;24.08;;
42168;SDS011;27838;43.858;25.974;2023-12-20T05:21:05;62.97;;;25.10;;
42168;SDS011;27838;43.858;25.974;2023-12-20T05:23:32;68.22;;;26.35;;
42168;SDS011;27838;43.858;25.974;2023-12-20T05:25:59;58.17;;;23.50;;
42168;SDS011;27838;43.858;25.974;2023-12-20T05:28:25;64.28;;;25.45;;
42168;SDS011;27838;43.858;25.974;2023-12-20T05:30:52;69.22;;;26.70;;
42168;SDS011;27838;43.858;25.974;2023-12-20T05:33:18;52.35;;;25.42;;
42168;SDS011;27838;43.858;25.974;2023-12-20T05:35:45;54.72;;;24.98;;
42168;SDS011;27838;43.858;25.974;2023-12-20T05:38:11;41.40;;;22.75;;
42168;SDS011;27838;43.858;25.974;2023-12-20T05:40:38;43.33;;;20.42;;
42168;SDS011;27838;43.858;25.974;2023-12-20T05:43:04;46.30;;;19.20;;
42168;SDS011;27838;43.858;25.974;2023-12-20T05:45:31;30.38;;;17.50;;
42168;SDS011;27838;43.858;25.974;2023-12-20T05:47:57;37.05;;;16.67;;
42168;SDS011;27838;43.858;25.974;2023-12-20T05:50:24;46.83;;;19.27;;
42168;SDS011;27838;43.858;25.974;2023-12-20T05:52:51;48.35;;;18.52;;
42168;SDS011;27838;43.858;25.974;2023-12-20T05:55:18;41.25;;;19.80;;
42168;SDS011;27838;43.858;25.974;2023-12-20T05:57:45;40.03;;;19.77;;
42168;SDS011;27838;43.858;25.974;2023-12-20T06:00:12;43.20;;;19.67;;
42168;SDS011;27838;43.858;25.974;2023-12-20T06:02:39;40.65;;;20.65;;
42168;SDS011;27838;43.858;25.974;2023-12-20T06:05:05;54.67;;;21.92;;
42168;SDS011;27838;43.858;25.974;2023-12-20T06:07:32;47.30;;;23.17;;
42168;SDS011;27838;43.858;25.974;2023-12-20T06:09:59;52.10;;;22.42;;
42168;SDS011;27838;43.858;25.974;2023-12-20T06:12:25;43.88;;;21.90;;
42168;SDS011;27838;43.858;25.974;2023-12-20T06:14:53;54.08;;;22.27;;
42168;SDS011;27838;43.858;25.974;2023-12-20T06:17:20;50.28;;;27.63;;
42168;SDS011;27838;43.858;25.974;2023-12-20T06:19:47;67.78;;;29.60;;
42168;SDS011;27838;43.858;25.974;2023-12-20T06:22:14;55.70;;;26.00;;
42168;SDS011;27838;43.858;25.974;2023-12-20T06:24:41;62.03;;;26.23;;
42168;SDS011;27838;43.858;25.974;2023-12-20T06:27:08;49.13;;;25.30;;
42168;SDS011;27838;43.858;25.974;2023-12-20T06:29:34;53.13;;;27.45;;
42168;SDS011;27838;43.858;25.974;2023-12-20T06:32:01;45.28;;;23.83;;
42168;SDS011;27838;43.858;25.974;2023-12-20T06:34:27;56.28;;;25.58;;
42168;SDS011;27838;43.858;25.974;2023-12-20T06:36:54;57.22;;;25.75;;
42168;SDS011;27838;43.858;25.974;2023-12-20T06:39:20;59.00;;;28.83;;
42168;SDS011;27838;43.858;25.974;2023-12-20T06:41:47;81.80;;;33.55;;
42168;SDS011;27838;43.858;25.974;2023-12-20T06:44:13;101.85;;;38.03;;
42168;SDS011;27838;43.858;25.974;2023-12-20T06:46:40;68.38;;;28.98;;
42168;SDS011;27838;43.858;25.974;2023-12-20T06:49:06;74.38;;;26.45;;
42168;SDS011;27838;43.858;25.974;2023-12-20T06:51:33;56.85;;;26.45;;
42168;SDS011;27838;43.858;25.974;2023-12-20T06:53:59;73.97;;;30.70;;
42168;SDS011;27838;43.858;25.974;2023-12-20T06:56:27;71.40;;;32.58;;
42168;SDS011;27838;43.858;25.974;2023-12-20T06:58:54;74.65;;;31.92;;
42168;SDS011;27838;43.858;25.974;2023-12-20T07:01:20;76.35;;;34.42;;
42168;SDS011;27838;43.858;25.974;2023-12-20T07:03:47;76.03;;;33.35;;
42168;SDS011;27838;43.858;25.974;2023-12-20T07:06:14;57.42;;;30.92;;
42168;SDS011;27838;43.858;25.974;2023-12-20T07:08:42;78.85;;;30.70;;
42168;SDS011;27838;43.858;25.974;2023-12-20T07:11:08;66.65;;;30.95;;
42168;SDS011;27838;43.858;25.974;2023-12-20T07:13:35;45.47;;;21.33;;
42168;SDS011;27838;43.858;25.974;2023-12-20T07:16:01;34.55;;;17.10;;
42168;SDS011;27838;43.858;25.974;2023-12-20T07:18:28;37.10;;;16.35;;
42168;SDS011;27838;43.858;25.974;2023-12-20T07:20:55;30.33;;;17.20;;
42168;SDS011;27838;43.858;25.974;2023-12-20T07:23:21;32.30;;;17.45;;
42168;SDS011;27838;43.858;25.974;2023-12-20T07:25:48;35.47;;;19.63;;
42168;SDS011;27838;43.858;25.974;2023-12-20T07:28:14;34.15;;;19.23;;
42168;SDS011;27838;43.858;25.974;2023-12-20T07:30:41;37.97;;;19.10;;
42168;SDS011;27838;43.858;25.974;2023-12-20T07:33:07;40.53;;;20.85;;
42168;SDS011;27838;43.858;25.974;2023-12-20T07:35:34;37.65;;;21.30;;
42168;SDS011;27838;43.858;25.974;2023-12-20T07:38:01;43.08;;;24.63;;
42168;SDS011;27838;43.858;25.974;2023-12-20T07:40:27;50.50;;;21.95;;
42168;SDS011;27838;43.858;25.974;2023-12-20T07:42:54;40.55;;;21.67;;
42168;SDS011;27838;43.858;25.974;2023-12-20T07:45:20;44.15;;;21.98;;
42168;SDS011;27838;43.858;25.974;2023-12-20T07:47:47;34.55;;;19.67;;
42168;SDS011;27838;43.858;25.974;2023-12-20T07:50:14;43.42;;;21.02;;
42168;SDS011;27838;43.858;25.974;2023-12-20T07:52:40;41.08;;;20.42;;
42168;SDS011;27838;43.858;25.974;2023-12-20T07:55:07;41.95;;;20.38;;
42168;SDS011;27838;43.858;25.974;2023-12-20T07:57:34;32.85;;;20.13;;
42168;SDS011;27838;43.858;25.974;2023-12-20T08:00:00;32.83;;;18.52;;
42168;SDS011;27838;43.858;25.974;2023-12-20T08:02:28;34.92;;;17.23;;
42168;SDS011;27838;43.858;25.974;2023-12-20T08:04:55;28.52;;;16.10;;
42168;SDS011;27838;43.858;25.974;2023-12-20T08:07:21;34.25;;;16.55;;
42168;SDS011;27838;43.858;25.974;2023-12-20T08:09:49;67.55;;;30.40;;
42168;SDS011;27838;43.858;25.974;2023-12-20T08:12:16;59.08;;;31.65;;
42168;SDS011;27838;43.858;25.974;2023-12-20T08:14:43;39.70;;;19.52;;
42168;SDS011;27838;43.858;25.974;2023-12-20T08:17:09;41.85;;;23.35;;
42168;SDS011;27838;43.858;25.974;2023-12-20T08:19:37;48.10;;;22.48;;
42168;SDS011;27838;43.858;25.974;2023-12-20T08:22:04;46.65;;;21.70;;
42168;SDS011;27838;43.858;25.974;2023-12-20T08:24:30;33.28;;;19.75;;
42168;SDS011;27838;43.858;25.974;2023-12-20T08:26:56;39.22;;;17.63;;
42168;SDS011;27838;43.858;25.974;2023-12-20T08:29:22;30.05;;;18.27;;
42168;SDS011;27838;43.858;25.974;2023-12-20T08:31:52;49.40;;;17.70;;
42168;SDS011;27838;43.858;25.974;2023-12-20T08:34:20;31.67;;;15.88;;
42168;SDS011;27838;43.858;25.974;2023-12-20T08:36:46;29.92;;;16.23;;
42168;SDS011;27838;43.858;25.974;2023-12-20T08:39:13;28.58;;;15.73;;
42168;SDS011;27838;43.858;25.974;2023-12-20T08:41:39;26.45;;;15.25;;
42168;SDS011;27838;43.858;25.974;2023-12-20T08:44:06;44.97;;;17.10;;
42168;SDS011;27838;43.858;25.974;2023-12-20T08:46:32;30.75;;;15.20;;
42168;SDS011;27838;43.858;25.974;2023-12-20T08:48:59;27.95;;;14.20;;
42168;SDS011;27838;43.858;25.974;2023-12-20T08:51:26;27.63;;;15.77;;
42168;SDS011;27838;43.858;25.974;2023-12-20T08:53:53;32.78;;;15.50;;
42168;SDS011;27838;43.858;25.974;2023-12-20T08:56:19;27.42;;;15.73;;
42168;SDS011;27838;43.858;25.974;2023-12-20T08:58:46;50.45;;;27.75;;
42168;SDS011;27838;43.858;25.974;2023-12-20T09:01:13;37.08;;;16.42;;
42168;SDS011;27838;43.858;25.974;2023-12-20T09:03:40;37.05;;;15.00;;
42168;SDS011;27838;43.858;25.974;2023-12-20T09:06:07;33.45;;;16.20;;
42168;SDS011;27838;43.858;25.974;2023-12-20T09:08:33;40.38;;;19.50;;
42168;SDS011;27838;43.858;25.974;2023-12-20T09:11:00;31.73;;;16.05;;
42168;SDS011;27838;43.858;25.974;2023-12-20T09:13:26;39.42;;;15.18;;
42168;SDS011;27838;43.858;25.974;2023-12-20T09:15:56;38.13;;;17.45;;
42168;SDS011;27838;43.858;25.974;2023-12-20T09:18:23;34.83;;;15.40;;
42168;SDS011;27838;43.858;25.974;2023-12-20T09:20:49;41.65;;;18.88;;
42168;SDS011;27838;43.858;25.974;2023-12-20T09:23:16;42.60;;;22.13;;
42168;SDS011;27838;43.858;25.974;2023-12-20T09:25:43;24.50;;;13.82;;
42168;SDS011;27838;43.858;25.974;2023-12-20T09:28:10;32.63;;;13.55;;
42168;SDS011;27838;43.858;25.974;2023-12-20T09:30:36;32.53;;;14.52;;
42168;SDS011;27838;43.858;25.974;2023-12-20T09:33:05;29.80;;;13.70;;
42168;SDS011;27838;43.858;25.974;2023-12-20T09:35:32;35.75;;;13.90;;
42168;SDS011;27838;43.858;25.974;2023-12-20T09:37:58;32.45;;;15.88;;
42168;SDS011;27838;43.858;25.974;2023-12-20T09:40:25;33.42;;;16.13;;
42168;SDS011;27838;43.858;25.974;2023-12-20T09:45:23;34.28;;;16.55;;
42168;SDS011;27838;43.858;25.974;2023-12-20T09:47:50;61.67;;;28.73;;
42168;SDS011;27838;43.858;25.974;2023-12-20T09:50:19;55.92;;;25.52;;
42168;SDS011;27838;43.858;25.974;2023-12-20T09:52:50;40.65;;;18.17;;
42168;SDS011;27838;43.858;25.974;2023-12-20T09:55:19;48.42;;;21.58;;
42168;SDS011;27838;43.858;25.974;2023-12-20T09:57:47;57.78;;;22.48;;
42168;SDS011;27838;43.858;25.974;2023-12-20T10:00:14;41.28;;;22.02;;
42168;SDS011;27838;43.858;25.974;2023-12-20T10:02:44;44.63;;;20.77;;
42168;SDS011;27838;43.858;25.974;2023-12-20T10:05:16;39.50;;;19.17;;
42168;SDS011;27838;43.858;25.974;2023-12-20T10:07:45;44.22;;;20.17;;
42168;SDS011;27838;43.858;25.974;2023-12-20T10:10:14;44.95;;;18.25;;
42168;SDS011;27838;43.858;25.974;2023-12-20T10:12:42;43.70;;;19.52;;
42168;SDS011;27838;43.858;25.974;2023-12-20T10:15:32;36.45;;;18.40;;
42168;SDS011;27838;43.858;25.974;2023-12-20T10:17:59;46.38;;;19.73;;
42168;SDS011;27838;43.858;25.974;2023-12-20T10:20:27;43.08;;;19.05;;
42168;SDS011;27838;43.858;25.974;2023-12-20T10:22:55;39.45;;;17.83;;
42168;SDS011;27838;43.858;25.974;2023-12-20T10:25:22;37.33;;;17.88;;
42168;SDS011;27838;43.858;25.974;2023-12-20T10:27:49;35.05;;;18.90;;
42168;SDS011;27838;43.858;25.974;2023-12-20T10:30:23;42.70;;;19.20;;
42168;SDS011;27838;43.858;25.974;2023-12-20T10:32:50;33.50;;;17.08;;
42168;SDS011;27838;43.858;25.974;2023-12-20T10:35:16;37.03;;;17.58;;
42168;SDS011;27838;43.858;25.974;2023-12-20T10:37:44;44.17;;;19.15;;
42168;SDS011;27838;43.858;25.974;2023-12-20T10:40:11;37.95;;;18.38;;
42168;SDS011;27838;43.858;25.974;2023-12-20T10:42:39;36.08;;;18.17;;
42168;SDS011;27838;43.858;25.974;2023-12-20T10:45:06;37.17;;;18.50;;
42168;SDS011;27838;43.858;25.974;2023-12-20T10:47:33;39.00;;;19.63;;
42168;SDS011;27838;43.858;25.974;2023-12-20T10:50:02;60.17;;;21.25;;
42168;SDS011;27838;43.858;25.974;2023-12-20T10:52:32;36.95;;;18.55;;
42168;SDS011;27838;43.858;25.974;2023-12-20T10:54:58;36.40;;;18.83;;
42168;SDS011;27838;43.858;25.974;2023-12-20T10:57:25;39.90;;;18.20;;
42168;SDS011;27838;43.858;25.974;2023-12-20T10:59:53;34.88;;;17.48;;
42168;SDS011;27838;43.858;25.974;2023-12-20T11:02:21;34.92;;;16.48;;
42168;SDS011;27838;43.858;25.974;2023-12-20T11:04:59;31.48;;;14.48;;
42168;SDS011;27838;43.858;25.974;2023-12-20T11:07:37;34.25;;;15.85;;
42168;SDS011;27838;43.858;25.974;2023-12-20T11:10:20;30.30;;;16.80;;
42168;SDS011;27838;43.858;25.974;2023-12-20T11:15:20;39.60;;;16.75;;
42168;SDS011;27838;43.858;25.974;2023-12-20T11:17:54;34.00;;;16.60;;
42168;SDS011;27838;43.858;25.974;2023-12-20T11:20:22;28.85;;;15.20;;
42168;SDS011;27838;43.858;25.974;2023-12-20T11:22:53;24.60;;;14.48;;
42168;SDS011;27838;43.858;25.974;2023-12-20T11:25:21;22.83;;;13.45;;
42168;SDS011;27838;43.858;25.974;2023-12-20T11:30:49;30.90;;;13.68;;
42168;SDS011;27838;43.858;25.974;2023-12-20T11:35:48;27.13;;;12.10;;
42168;SDS011;27838;43.858;25.974;2023-12-20T11:38:14;21.67;;;11.75;;
42168;SDS011;27838;43.858;25.974;2023-12-20T11:40:41;22.13;;;12.18;;
42168;SDS011;27838;43.858;25.974;2023-12-20T11:43:09;20.20;;;11.73;;
42168;SDS011;27838;43.858;25.974;2023-12-20T11:45:35;20.67;;;11.38;;
42168;SDS011;27838;43.858;25.974;2023-12-20T11:48:02;25.55;;;12.27;;
42168;SDS011;27838;43.858;25.974;2023-12-20T11:50:29;22.98;;;12.38;;
42168;SDS011;27838;43.858;25.974;2023-12-20T11:52:56;21.58;;;11.82;;
42168;SDS011;27838;43.858;25.974;2023-12-20T11:55:23;21.15;;;12.63;;
42168;SDS011;27838;43.858;25.974;2023-12-20T11:57:50;19.70;;;12.40;;
42168;SDS011;27838;43.858;25.974;2023-12-20T12:00:18;26.50;;;12.38;;
42168;SDS011;27838;43.858;25.974;2023-12-20T12:02:54;25.33;;;12.15;;
42168;SDS011;27838;43.858;25.974;2023-12-20T12:05:21;20.15;;;11.32;;
42168;SDS011;27838;43.858;25.974;2023-12-20T12:07:48;25.65;;;11.48;;
42168;SDS011;27838;43.858;25.974;2023-12-20T12:10:15;16.67;;;8.75;;
42168;SDS011;27838;43.858;25.974;2023-12-20T12:12:41;40.25;;;16.80;;
42168;SDS011;27838;43.858;25.974;2023-12-20T12:15:08;17.40;;;7.75;;
42168;SDS011;27838;43.858;25.974;2023-12-20T12:17:35;14.30;;;7.63;;
42168;SDS011;27838;43.858;25.974;2023-12-20T12:20:05;18.83;;;7.30;;
42168;SDS011;27838;43.858;25.974;2023-12-20T12:22:34;12.77;;;6.97;;
42168;SDS011;27838;43.858;25.974;2023-12-20T12:25:11;10.50;;;6.18;;
42168;SDS011;27838;43.858;25.974;2023-12-20T12:27:39;13.02;;;6.88;;
42168;SDS011;27838;43.858;25.974;2023-12-20T12:30:07;10.50;;;6.95;;
42168;SDS011;27838;43.858;25.974;2023-12-20T12:32:35;13.80;;;5.85;;
42168;SDS011;27838;43.858;25.974;2023-12-20T12:35:03;9.43;;;5.72;;
42168;SDS011;27838;43.858;25.974;2023-12-20T12:37:31;11.90;;;6.18;;
42168;SDS011;27838;43.858;25.974;2023-12-20T12:40:00;12.82;;;6.63;;
42168;SDS011;27838;43.858;25.974;2023-12-20T12:42:26;10.85;;;5.55;;
42168;SDS011;27838;43.858;25.974;2023-12-20T12:44:54;11.95;;;5.50;;
42168;SDS011;27838;43.858;25.974;2023-12-20T12:47:21;9.65;;;5.13;;
42168;SDS011;27838;43.858;25.974;2023-12-20T12:49:49;12.70;;;5.25;;
42168;SDS011;27838;43.858;25.974;2023-12-20T12:52:17;9.65;;;4.88;;
42168;SDS011;27838;43.858;25.974;2023-12-20T12:54:44;11.55;;;4.70;;
42168;SDS011;27838;43.858;25.974;2023-12-20T12:57:11;13.13;;;4.57;;
42168;SDS011;27838;43.858;25.974;2023-12-20T12:59:39;9.05;;;4.55;;
42168;SDS011;27838;43.858;25.974;2023-12-20T13:02:06;16.02;;;5.05;;
42168;SDS011;27838;43.858;25.974;2023-12-20T13:04:33;11.52;;;5.38;;
42168;SDS011;27838;43.858;25.974;2023-12-20T13:06:59;17.17;;;4.70;;
42168;SDS011;27838;43.858;25.974;2023-12-20T13:09:26;11.95;;;4.60;;
42168;SDS011;27838;43.858;25.974;2023-12-20T13:11:53;11.43;;;4.65;;
42168;SDS011;27838;43.858;25.974;2023-12-20T13:14:19;6.35;;;4.68;;
42168;SDS011;27838;43.858;25.974;2023-12-20T13:16:46;8.32;;;5.00;;
42168;SDS011;27838;43.858;25.974;2023-12-20T13:19:13;14.23;;;4.78;;
42168;SDS011;27838;43.858;25.974;2023-12-20T13:21:39;10.13;;;6.20;;
42168;SDS011;27838;43.858;25.974;2023-12-20T13:24:06;10.60;;;5.78;;
42168;SDS011;27838;43.858;25.974;2023-12-20T13:26:32;13.63;;;6.07;;
42168;SDS011;27838;43.858;25.974;2023-12-20T13:28:59;11.38;;;5.88;;
42168;SDS011;27838;43.858;25.974;2023-12-20T13:31:26;12.43;;;6.10;;
42168;SDS011;27838;43.858;25.974;2023-12-20T13:33:53;19.63;;;6.38;;
42168;SDS011;27838;43.858;25.974;2023-12-20T13:36:19;12.65;;;5.95;;
42168;SDS011;27838;43.858;25.974;2023-12-20T13:38:46;12.23;;;6.07;;
42168;SDS011;27838;43.858;25.974;2023-12-20T13:41:13;13.60;;;6.07;;
42168;SDS011;27838;43.858;25.974;2023-12-20T13:43:39;10.35;;;5.47;;
42168;SDS011;27838;43.858;25.974;2023-12-20T13:46:06;15.57;;;5.90;;
42168;SDS011;27838;43.858;25.974;2023-12-20T13:48:32;10.50;;;5.20;;
42168;SDS011;27838;43.858;25.974;2023-12-20T13:50:59;11.38;;;5.75;;
42168;SDS011;27838;43.858;25.974;2023-12-20T13:53:27;9.98;;;5.28;;
42168;SDS011;27838;43.858;25.974;2023-12-20T13:55:54;11.95;;;5.85;;
42168;SDS011;27838;43.858;25.974;2023-12-20T13:58:21;11.20;;;5.35;;
42168;SDS011;27838;43.858;25.974;2023-12-20T14:00:47;10.27;;;5.22;;
42168;SDS011;27838;43.858;25.974;2023-12-20T14:03:13;10.52;;;5.72;;
42168;SDS011;27838;43.858;25.974;2023-12-20T14:05:39;11.82;;;6.32;;
42168;SDS011;27838;43.858;25.974;2023-12-20T14:08:06;34.28;;;11.10;;
42168;SDS011;27838;43.858;25.974;2023-12-20T14:10:33;20.00;;;6.93;;
42168;SDS011;27838;43.858;25.974;2023-12-20T14:12:59;10.90;;;6.10;;
42168;SDS011;27838;43.858;25.974;2023-12-20T14:15:26;21.80;;;7.45;;
42168;SDS011;27838;43.858;25.974;2023-12-20T14:17:53;19.95;;;8.05;;
42168;SDS011;27838;43.858;25.974;2023-12-20T14:20:19;18.92;;;7.75;;